Time;durP1;ratioP1;P1;durP2;ratioP2;P2;SDS_P1;SDS_P2;PMS_P1;PMS_P2;Temp;Humidity;BMP_temperature;BMP_pressure;BME280_temperature;BME280_humidity;BME280_pressure;Samples;Min_cycle;Max_cycle;Signal;HPM_P1;HPM_P2
2022/09/26 00:02:08;;;;;;;7.75;4.35;;;7.60;99.90;;;;;;5090371;28;20052;-84
2022/09/26 00:04:34;;;;;;;11.38;4.82;;;7.60;99.90;;;;;;5089845;28;20419;-84
2022/09/26 00:07:00;;;;;;;7.82;4.57;;;7.50;99.90;;;;;;5090910;28;20191;-85
2022/09/26 00:09:27;;;;;;;8.82;4.43;;;7.50;99.90;;;;;;5073685;28;20036;-85
2022/09/26 00:11:54;;;;;;;8.77;4.55;;;7.50;99.90;;;;;;5085968;28;20358;-85
2022/09/26 00:14:24;;;;;;;12.00;5.25;;;7.40;99.90;;;;;;5089616;28;20469;-85
2022/09/26 00:16:50;;;;;;;9.25;4.50;;;7.40;99.90;;;;;;5084632;28;20059;-84
2022/09/26 00:19:17;;;;;;;10.70;4.22;;;7.30;99.90;;;;;;5073571;28;20047;-85
2022/09/26 00:21:43;;;;;;;8.27;3.90;;;7.20;99.90;;;;;;5090620;28;20032;-84
2022/09/26 00:24:09;;;;;;;12.85;4.18;;;7.30;99.90;;;;;;5072597;28;20051;-84
2022/09/26 00:26:36;;;;;;;7.28;4.45;;;7.30;99.90;;;;;;5091900;28;20048;-85
2022/09/26 00:29:10;;;;;;;8.38;4.30;;;7.30;99.90;;;;;;5090832;28;20071;-86
2022/09/26 00:31:40;;;;;;;8.77;4.55;;;7.30;99.90;;;;;;5091278;28;20469;-85
2022/09/26 00:34:07;;;;;;;8.75;3.78;;;7.20;99.90;;;;;;5090016;28;20039;-84
2022/09/26 00:36:33;;;;;;;10.90;4.63;;;7.40;99.90;;;;;;5091783;28;20036;-85
2022/09/26 00:39:00;;;;;;;7.53;4.15;;;7.40;99.90;;;;;;5087576;28;20040;-84
2022/09/26 00:41:26;;;;;;;11.00;4.60;;;7.50;99.90;;;;;;5096420;28;20032;-85
2022/09/26 00:43:55;;;;;;;10.23;4.80;;;7.60;99.90;;;;;;5095483;28;20032;-85
2022/09/26 00:46:33;;;;;;;9.93;5.25;;;7.50;99.90;;;;;;5094900;28;20055;-86
2022/09/26 00:49:11;;;;;;;7.63;5.55;;;7.50;99.90;;;;;;5096724;28;20036;-85
2022/09/26 00:51:40;;;;;;;11.98;5.47;;;7.50;99.90;;;;;;5093905;28;20040;-85
2022/09/26 00:54:11;;;;;;;9.13;5.53;;;7.50;99.90;;;;;;5094963;28;20035;-85
2022/09/26 00:56:38;;;;;;;11.60;5.70;;;7.60;99.90;;;;;;5094108;28;20043;-84
2022/09/26 00:59:57;;;;;;;11.18;5.05;;;7.60;99.90;;;;;;5095936;28;20054;-85
2022/09/26 01:02:26;;;;;;;8.15;4.63;;;7.40;99.90;;;;;;5049749;28;20424;-85
2022/09/26 01:04:53;;;;;;;11.18;4.40;;;7.40;99.90;;;;;;5093196;28;20048;-84
2022/09/26 01:07:22;;;;;;;11.60;4.88;;;7.40;99.90;;;;;;5093203;28;20047;-84
2022/09/26 01:09:49;;;;;;;8.07;4.28;;;7.40;99.90;;;;;;5094117;28;20044;-84
2022/09/26 01:12:17;;;;;;;10.07;4.70;;;7.30;99.90;;;;;;5095277;28;20476;-84
2022/09/26 01:14:45;;;;;;;7.40;4.35;;;7.30;99.90;;;;;;5086775;28;20456;-85
2022/09/26 01:17:12;;;;;;;8.68;6.07;;;7.40;99.90;;;;;;5088851;28;20036;-85
2022/09/26 01:19:49;;;;;;;9.00;4.38;;;7.40;99.90;;;;;;5080351;28;20032;-85
2022/09/26 01:22:39;;;;;;;8.82;4.45;;;7.30;99.90;;;;;;5087771;28;20040;-84
2022/09/26 01:25:28;;;;;;;13.15;4.55;;;7.40;99.90;;;;;;5093359;28;20040;-85
2022/09/26 01:28:26;;;;;;;8.45;4.03;;;7.40;99.90;;;;;;5095682;28;20114;-85
2022/09/26 01:31:12;;;;;;;9.73;4.38;;;7.40;99.90;;;;;;5094803;28;20036;-84
2022/09/26 01:34:17;;;;;;;7.72;4.45;;;7.40;99.90;;;;;;5099843;28;20055;-85
2022/09/26 01:37:02;;;;;;;9.05;4.40;;;7.30;99.90;;;;;;5017895;28;20041;-85
2022/09/26 01:39:33;;;;;;;13.15;5.47;;;7.30;99.90;;;;;;5016360;28;20045;-84
2022/09/26 01:42:11;;;;;;;12.68;5.57;;;7.30;99.90;;;;;;5031121;28;20502;-84
2022/09/26 01:45:14;;;;;;;9.00;6.05;;;7.50;99.90;;;;;;5030882;28;20491;-85
2022/09/26 01:48:17;;;;;;;14.80;6.45;;;7.70;99.90;;;;;;5026689;28;20421;-85
2022/09/26 01:50:52;;;;;;;13.82;8.43;;;7.70;99.90;;;;;;5015279;28;20033;-85
2022/09/26 01:53:24;;;;;;;12.32;8.10;;;7.90;99.90;;;;;;5017233;28;20494;-85
2022/09/26 01:56:11;;;;;;;12.25;6.45;;;8.00;99.90;;;;;;5056513;28;20030;-85
2022/09/26 01:59:17;;;;;;;12.27;6.30;;;7.80;99.90;;;;;;5050546;28;20045;-84
2022/09/26 02:01:50;;;;;;;13.02;5.38;;;7.60;99.90;;;;;;5023504;28;20057;-84
2022/09/26 02:04:23;;;;;;;8.10;5.30;;;7.50;99.90;;;;;;5030437;28;20053;-84
2022/09/26 02:06:55;;;;;;;14.18;6.47;;;7.40;99.90;;;;;;5048036;28;20051;-84
2022/09/26 02:09:38;;;;;;;11.13;5.78;;;7.30;99.90;;;;;;5092395;28;20059;-84
2022/09/26 02:12:13;;;;;;;12.88;5.05;;;7.20;99.90;;;;;;5092852;28;20040;-84
2022/09/26 02:14:42;;;;;;;15.23;6.05;;;7.10;99.90;;;;;;5091525;28;20447;-85
2022/09/26 02:17:21;;;;;;;11.18;5.60;;;7.10;99.90;;;;;;5093163;28;20047;-84
2022/09/26 02:20:09;;;;;;;11.57;6.82;;;7.10;99.90;;;;;;5093448;28;20384;-85
2022/09/26 02:22:37;;;;;;;9.82;6.78;;;7.20;99.90;;;;;;5092332;28;20044;-85
2022/09/26 02:25:04;;;;;;;14.27;6.53;;;7.40;99.90;;;;;;5091834;28;20389;-84
2022/09/26 02:27:30;;;;;;;12.55;7.78;;;7.50;99.90;;;;;;5075637;28;20044;-85
2022/09/26 02:29:58;;;;;;;21.88;8.45;;;7.60;99.90;;;;;;5094127;28;20028;-85
2022/09/26 02:32:30;;;;;;;16.48;8.95;;;7.70;99.90;;;;;;5091210;28;20503;-84
2022/09/26 02:34:58;;;;;;;12.88;7.75;;;7.90;99.90;;;;;;5091386;28;20397;-84
2022/09/26 02:37:27;;;;;;;14.18;8.93;;;7.90;99.90;;;;;;5092125;28;20052;-83
2022/09/26 02:39:55;;;;;;;16.38;9.05;;;8.00;99.90;;;;;;5092412;28;20396;-85
2022/09/26 02:42:46;;;;;;;18.83;9.35;;;8.10;99.90;;;;;;5093072;28;20028;-85
2022/09/26 02:45:42;;;;;;;19.23;9.50;;;8.20;99.90;;;;;;5091580;28;20055;-84
2022/09/26 02:48:25;;;;;;;19.48;9.82;;;8.30;99.90;;;;;;5071996;28;20048;-85
2022/09/26 02:51:17;;;;;;;22.33;10.40;;;8.40;99.90;;;;;;5086899;28;20040;-85
2022/09/26 02:54:01;;;;;;;17.30;9.85;;;8.30;99.90;;;;;;5090072;28;20495;-85
2022/09/26 02:56:56;;;;;;;25.73;11.55;;;8.30;99.90;;;;;;5086484;28;20055;-85
2022/09/26 02:59:41;;;;;;;16.17;9.25;;;8.20;99.90;;;;;;5091117;28;20396;-85
2022/09/26 03:02:19;;;;;;;15.27;9.18;;;8.10;99.90;;;;;;5090113;28;20048;-84
2022/09/26 03:05:14;;;;;;;18.77;9.40;;;8.20;99.90;;;;;;5088185;28;20047;-85
2022/09/26 03:07:57;;;;;;;17.02;9.75;;;8.20;99.90;;;;;;5092888;28;20257;-85
2022/09/26 03:10:27;;;;;;;17.33;9.63;;;8.20;99.90;;;;;;5090675;28;20504;-85
2022/09/26 03:13:00;;;;;;;20.00;11.55;;;8.30;99.90;;;;;;5091399;28;20377;-85
2022/09/26 03:15:28;;;;;;;20.73;9.88;;;8.40;99.90;;;;;;5092778;28;20032;-85
2022/09/26 03:17:56;;;;;;;17.55;10.13;;;8.40;99.90;;;;;;5085441;28;20040;-84
2022/09/26 03:20:24;;;;;;;16.30;9.93;;;8.40;99.90;;;;;;5070704;28;20045;-85
2022/09/26 03:22:53;;;;;;;21.17;10.40;;;8.40;99.90;;;;;;5084943;28;20051;-85
2022/09/26 03:25:26;;;;;;;17.58;9.73;;;8.40;99.90;;;;;;5085024;28;20051;-84
2022/09/26 03:28:01;;;;;;;22.90;11.50;;;8.40;99.90;;;;;;5070370;28;20047;-85
2022/09/26 03:30:28;;;;;;;17.10;9.82;;;8.30;99.90;;;;;;5090560;28;20040;-85
2022/09/26 03:33:20;;;;;;;16.02;9.35;;;8.30;99.90;;;;;;5090124;28;20054;-85
2022/09/26 03:35:47;;;;;;;17.20;10.15;;;8.30;99.90;;;;;;5074799;28;20051;-85
2022/09/26 03:38:13;;;;;;;16.60;10.25;;;8.20;99.90;;;;;;5075043;28;20047;-84
2022/09/26 03:40:45;;;;;;;21.67;10.82;;;8.30;99.90;;;;;;5090366;28;20043;-84
2022/09/26 03:43:43;;;;;;;17.67;10.18;;;8.20;99.90;;;;;;5057156;28;20069;-86
2022/09/26 03:46:11;;;;;;;18.27;9.88;;;8.20;99.90;;;;;;5091325;28;20425;-84
2022/09/26 03:48:38;;;;;;;21.10;10.93;;;8.10;99.90;;;;;;5089681;28;20059;-85
2022/09/26 03:51:08;;;;;;;17.08;9.73;;;8.10;99.90;;;;;;5086569;28;20043;-85
2022/09/26 03:53:38;;;;;;;18.88;10.63;;;8.10;99.90;;;;;;5086997;28;20028;-84
2022/09/26 03:56:13;;;;;;;18.42;9.88;;;8.00;99.90;;;;;;5076458;28;20037;-84
2022/09/26 03:58:41;;;;;;;16.88;9.45;;;8.00;99.90;;;;;;5076938;28;20048;-83
2022/09/26 04:01:10;;;;;;;18.50;9.98;;;7.80;99.90;;;;;;5090737;28;20401;-84
2022/09/26 04:03:38;;;;;;;14.65;9.52;;;7.90;99.90;;;;;;5088390;28;20048;-84
2022/09/26 04:06:09;;;;;;;16.73;9.13;;;7.80;99.90;;;;;;5092508;28;20032;-83
2022/09/26 04:08:38;;;;;;;16.75;10.02;;;8.00;99.90;;;;;;5091169;28;20048;-83
2022/09/26 04:11:10;;;;;;;20.88;9.63;;;8.00;99.90;;;;;;5084239;28;20491;-84
2022/09/26 04:13:37;;;;;;;18.85;10.23;;;8.00;99.90;;;;;;5097438;28;20043;-83
2022/09/26 04:16:05;;;;;;;19.30;10.27;;;8.00;99.90;;;;;;5082424;28;20047;-83
2022/09/26 04:18:32;;;;;;;19.63;10.25;;;7.90;99.90;;;;;;5092744;28;20036;-82
2022/09/26 04:21:10;;;;;;;19.25;10.63;;;7.90;99.90;;;;;;5091744;28;20040;-82
2022/09/26 04:23:39;;;;;;;20.65;11.32;;;8.00;99.90;;;;;;5071876;28;20040;-82
2022/09/26 04:26:08;;;;;;;19.48;10.70;;;8.00;99.90;;;;;;5073752;28;20391;-83
2022/09/26 04:28:35;;;;;;;17.63;10.43;;;8.00;99.90;;;;;;5090660;28;20049;-84
2022/09/26 04:31:05;;;;;;;20.90;10.57;;;7.90;99.90;;;;;;5090523;28;20036;-84
2022/09/26 04:33:33;;;;;;;20.17;10.77;;;7.90;99.90;;;;;;5071503;28;20044;-84
2022/09/26 04:36:11;;;;;;;20.42;10.80;;;8.00;99.90;;;;;;5090428;28;20040;-84
2022/09/26 04:38:39;;;;;;;25.17;12.07;;;8.00;99.90;;;;;;5091165;28;20039;-82
2022/09/26 04:41:19;;;;;;;18.50;11.15;;;7.90;99.90;;;;;;5067722;28;20035;-82
2022/09/26 04:43:48;;;;;;;27.13;11.88;;;7.90;99.90;;;;;;5074192;28;20481;-82
2022/09/26 04:46:20;;;;;;;23.02;11.50;;;7.90;99.90;;;;;;5088425;28;20048;-82
2022/09/26 04:48:51;;;;;;;24.08;12.23;;;8.00;99.90;;;;;;5073683;28;20051;-81
2022/09/26 04:51:21;;;;;;;21.70;11.07;;;8.00;99.90;;;;;;5073772;28;20114;-82
2022/09/26 04:53:50;;;;;;;23.55;11.38;;;7.90;99.90;;;;;;5071918;28;20036;-82
2022/09/26 04:56:26;;;;;;;19.95;10.45;;;7.90;99.90;;;;;;5074445;28;20050;-80
2022/09/26 04:58:55;;;;;;;25.45;12.90;;;8.00;99.90;;;;;;5083558;28;20385;-80
2022/09/26 05:01:23;;;;;;;23.85;12.15;;;8.00;99.90;;;;;;5083376;28;20044;-81
2022/09/26 05:04:13;;;;;;;27.45;15.70;;;8.00;99.90;;;;;;5085223;28;20048;-80
2022/09/26 05:06:41;;;;;;;26.70;13.65;;;8.10;99.90;;;;;;5089353;28;20047;-80
2022/09/26 05:09:13;;;;;;;32.15;18.20;;;8.20;99.90;;;;;;5089354;28;20036;-79
2022/09/26 05:11:59;;;;;;;37.83;20.10;;;8.30;99.90;;;;;;5094193;28;20511;-79
2022/09/26 05:14:26;;;;;;;41.20;18.58;;;8.40;99.90;;;;;;5099997;28;20056;-86
2022/09/26 05:16:53;;;;;;;40.80;18.90;;;8.50;99.90;;;;;;5084095;28;20028;-82
2022/09/26 05:19:20;;;;;;;43.28;18.40;;;8.50;99.90;;;;;;5080400;28;20032;-82
2022/09/26 05:22:05;;;;;;;38.28;19.55;;;8.50;99.90;;;;;;5082160;28;20116;-81
2022/09/26 05:27:18;;;;;;;42.83;19.80;;;8.50;99.90;;;;;;5082603;28;20040;-80
2022/09/26 05:29:44;;;;;;;37.15;17.60;;;8.60;99.90;;;;;;5088489;28;20031;-80
2022/09/26 05:32:12;;;;;;;32.63;16.58;;;8.60;99.90;;;;;;5085058;28;20044;-80
2022/09/26 05:34:39;;;;;;;42.13;19.77;;;8.60;99.90;;;;;;5090687;28;20077;-81
2022/09/26 05:37:07;;;;;;;43.65;16.73;;;8.60;99.90;;;;;;5083875;28;20496;-81
2022/09/26 05:42:22;;;;;;;34.95;17.33;;;8.60;99.90;;;;;;5059606;28;20036;-81
2022/09/26 05:44:49;;;;;;;38.53;17.45;;;8.60;99.90;;;;;;5085789;28;20028;-81
2022/09/26 05:47:16;;;;;;;30.65;16.35;;;8.60;99.90;;;;;;5067448;28;20047;-81
2022/09/26 05:49:42;;;;;;;30.92;16.17;;;8.60;99.90;;;;;;5083846;28;20135;-81
2022/09/26 05:52:13;;;;;;;33.35;15.65;;;8.60;99.90;;;;;;5090362;28;20047;-81
2022/09/26 05:54:40;;;;;;;36.58;16.08;;;8.70;99.90;;;;;;5090151;28;20032;-78
2022/09/26 05:57:26;;;;;;;37.38;16.08;;;8.60;99.90;;;;;;5090115;28;20036;-80
2022/09/26 05:59:54;;;;;;;32.55;16.08;;;8.70;99.90;;;;;;5090693;28;20036;-79
2022/09/26 06:02:23;;;;;;;30.85;15.60;;;8.80;99.90;;;;;;5074045;28;20036;-80
2022/09/26 06:05:03;;;;;;;29.43;16.10;;;8.90;99.90;;;;;;5056173;28;20036;-80
2022/09/26 06:07:44;;;;;;;32.55;15.07;;;8.90;99.90;;;;;;5054846;28;20040;-79
2022/09/26 06:10:15;;;;;;;35.20;17.05;;;9.00;99.90;;;;;;5048549;28;20036;-78
2022/09/26 06:13:01;;;;;;;27.67;15.30;;;9.10;99.90;;;;;;5049656;28;20047;-78
2022/09/26 06:15:29;;;;;;;30.13;14.13;;;9.20;99.90;;;;;;5054847;28;20041;-85
2022/09/26 06:18:03;;;;;;;27.92;14.73;;;9.30;99.90;;;;;;5073511;28;20032;-76
2022/09/26 06:20:31;;;;;;;30.10;15.20;;;9.40;99.90;;;;;;5055003;28;20040;-78
2022/09/26 06:23:00;;;;;;;31.70;15.30;;;9.50;99.90;;;;;;5054459;28;20039;-77
2022/09/26 06:25:28;;;;;;;29.13;14.85;;;9.60;99.90;;;;;;5045518;28;20021;-78
2022/09/26 06:27:56;;;;;;;26.60;15.23;;;9.80;99.90;;;;;;5036373;28;20036;-77
2022/09/26 06:30:23;;;;;;;29.10;15.95;;;9.80;99.90;;;;;;5067267;28;20025;-79
2022/09/26 06:32:51;;;;;;;22.17;12.82;;;10.10;99.90;;;;;;5053681;28;20040;-78
2022/09/26 06:35:32;;;;;;;;;;;10.50;99.90;;;;;;5054788;28;20366;-78
2022/09/26 06:38:07;;;;;;;16.60;10.05;;;11.20;99.90;;;;;;5055171;28;19904;-77
2022/09/26 06:40:34;;;;;;;15.15;9.00;;;11.30;99.90;;;;;;5054153;28;20044;-77
2022/09/26 06:43:00;;;;;;;13.20;8.25;;;11.40;99.90;;;;;;5053919;28;20032;-77
2022/09/26 06:45:49;;;;;;;10.60;7.15;;;11.20;99.90;;;;;;5027241;28;20036;-77
2022/09/26 06:48:26;;;;;;;9.52;6.30;;;11.60;99.90;;;;;;5067798;28;20369;-78
2022/09/26 06:51:00;;;;;;;10.15;5.22;;;11.50;99.90;;;;;;5069557;28;20032;-76
2022/09/26 06:53:29;;;;;;;7.80;4.63;;;11.10;99.90;;;;;;5053457;28;20044;-77
2022/09/26 06:56:00;;;;;;;9.82;5.65;;;10.90;99.90;;;;;;5054675;28;20047;-77
2022/09/26 06:58:27;;;;;;;9.55;5.43;;;11.30;99.90;;;;;;5038121;28;20040;-77
2022/09/26 07:01:02;;;;;;;6.57;4.20;;;11.80;99.90;;;;;;5069442;28;20040;-77
2022/09/26 07:03:41;;;;;;;4.50;3.38;;;12.30;99.90;;;;;;5091629;28;20048;-77
2022/09/26 07:06:27;;;;;;;5.57;3.53;;;12.50;99.90;;;;;;5071071;28;20499;-77
2022/09/26 07:08:55;;;;;;;6.22;3.22;;;12.80;99.90;;;;;;5086381;28;20503;-77
2022/09/26 07:11:42;;;;;;;4.78;2.92;;;13.40;99.90;;;;;;5083938;28;20039;-77
2022/09/26 07:14:08;;;;;;;7.32;3.00;;;13.80;99.90;;;;;;5084423;28;20487;-77
2022/09/26 07:16:35;;;;;;;3.63;2.35;;;14.10;99.90;;;;;;5070847;28;20463;-77
2022/09/26 07:19:18;;;;;;;4.82;2.90;;;13.70;99.90;;;;;;5081117;28;20063;-77
2022/09/26 07:22:00;;;;;;;5.15;2.85;;;13.50;99.90;;;;;;5085940;28;20040;-77
2022/09/26 07:24:31;;;;;;;5.10;3.58;;;13.10;99.90;;;;;;5086453;28;20043;-83
2022/09/26 07:26:57;;;;;;;5.15;2.25;;;12.80;99.90;;;;;;5091489;28;20051;-77
2022/09/26 07:29:25;;;;;;;5.15;2.95;;;12.50;99.90;;;;;;5090687;28;20052;-77
2022/09/26 07:31:52;;;;;;;5.55;2.95;;;12.30;99.90;;;;;;5087916;28;20119;-75
2022/09/26 07:34:37;;;;;;;7.00;3.55;;;12.50;99.90;;;;;;5084861;28;20263;-80
2022/09/26 07:37:03;;;;;;;6.25;3.30;;;12.80;99.90;;;;;;5090576;28;20035;-82
2022/09/26 07:39:30;;;;;;;11.45;3.55;;;13.00;99.90;;;;;;5090815;28;20061;-80
2022/09/26 07:41:56;;;;;;;6.10;3.47;;;12.90;99.90;;;;;;5090619;28;20036;-81
2022/09/26 07:44:22;;;;;;;5.43;2.92;;;12.90;99.90;;;;;;5088018;28;20020;-81
2022/09/26 07:52:43;;;;;;;5.05;2.17;;;13.20;99.90;;;;;;5089122;28;20044;-78
2022/09/26 07:55:23;;;;;;;4.40;2.30;;;13.60;99.90;;;;;;5092629;28;20036;-78
2022/09/26 07:57:59;;;;;;;3.88;1.90;;;13.60;99.90;;;;;;5091060;28;20040;-80
2022/09/26 08:00:47;;;;;;;6.72;2.20;;;13.80;99.90;;;;;;5058750;28;20388;-77
2022/09/26 08:03:37;;;;;;;5.55;2.25;;;14.50;99.90;;;;;;5088897;28;20048;-78
2022/09/26 08:06:19;;;;;;;2.95;1.65;;;14.80;99.90;;;;;;5091045;28;20043;-78
2022/09/26 08:08:49;;;;;;;3.15;2.15;;;14.70;99.90;;;;;;5090177;28;20043;-77
2022/09/26 08:11:34;;;;;;;3.63;1.83;;;14.90;99.90;;;;;;5091200;28;20043;-79
2022/09/26 08:14:19;;;;;;;3.63;1.60;;;15.10;99.90;;;;;;5089520;28;20465;-77
2022/09/26 08:17:18;;;;;;;2.85;1.33;;;14.90;99.90;;;;;;5084197;28;20045;-77
2022/09/26 08:19:45;;;;;;;2.88;1.48;;;14.90;99.90;;;;;;5089833;28;20059;-76
2022/09/26 08:22:11;;;;;;;5.40;1.85;;;15.40;99.90;;;;;;5087571;28;20045;-77
2022/09/26 08:24:38;;;;;;;4.13;1.90;;;15.40;99.90;;;;;;5089067;28;20043;-76
2022/09/26 08:27:22;;;;;;;4.32;1.75;;;15.10;99.90;;;;;;5090261;28;20368;-76
2022/09/26 08:29:49;;;;;;;4.35;1.85;;;15.50;99.90;;;;;;5073456;28;20039;-79
2022/09/26 08:32:18;;;;;;;3.05;1.55;;;15.50;99.90;;;;;;5089527;28;20047;-77
2022/09/26 08:34:45;;;;;;;4.07;1.35;;;15.60;99.90;;;;;;5091190;28;20039;-75
2022/09/26 08:37:30;;;;;;;2.28;1.15;;;15.50;99.90;;;;;;5095895;28;20028;-77
2022/09/26 08:40:15;;;;;;;6.97;1.63;;;15.50;99.90;;;;;;5095907;28;20039;-77
2022/09/26 08:43:14;;;;;;;4.53;2.20;;;15.80;99.90;;;;;;5095509;28;20039;-78
2022/09/26 08:49:39;;;;;;;2.47;1.60;;;15.50;99.90;;;;;;5046496;28;20051;-77
2022/09/26 08:52:26;;;;;;;6.60;1.55;;;15.70;99.90;;;;;;5044577;28;20048;-78
2022/09/26 08:54:58;;;;;;;4.93;1.90;;;15.50;99.90;;;;;;5075698;28;20463;-77
2022/09/26 08:57:41;;;;;;;4.28;1.42;;;15.00;99.90;;;;;;5091737;28;20043;-76
2022/09/26 09:00:20;;;;;;;4.30;1.58;;;14.80;99.90;;;;;;5086192;28;20048;-77
2022/09/26 09:03:19;;;;;;;3.30;1.55;;;15.50;99.90;;;;;;5054782;28;20048;-77
2022/09/26 09:05:49;;;;;;;3.85;1.60;;;16.30;99.90;;;;;;5056912;28;20358;-76
2022/09/26 09:08:28;;;;;;;3.65;1.77;;;17.00;99.90;;;;;;5056455;28;20048;-76
2022/09/26 09:11:23;;;;;;;3.93;1.67;;;17.00;99.90;;;;;;5056710;28;20033;-77
2022/09/26 09:13:55;;;;;;;6.60;1.30;;;16.90;99.90;;;;;;5067077;28;20044;-77
2022/09/26 09:17:19;;;;;;;4.90;1.35;;;16.90;99.90;;;;;;5074715;28;20337;-77
2022/09/26 09:20:21;;;;;;;2.10;1.20;;;16.80;99.50;;;;;;5060589;28;20043;-77
2022/09/26 09:23:28;;;;;;;4.43;0.98;;;16.70;99.40;;;;;;5073249;28;20368;-77
2022/09/26 09:26:03;;;;;;;2.38;1.40;;;16.70;98.90;;;;;;5056512;28;20040;-76
2022/09/26 09:28:57;;;;;;;2.85;1.38;;;16.60;99.00;;;;;;5056486;28;20173;-77
2022/09/26 09:31:29;;;;;;;2.65;1.33;;;16.70;99.70;;;;;;5055955;28;20040;-76
2022/09/26 09:34:37;;;;;;;2.83;1.00;;;17.60;98.80;;;;;;5053593;28;20473;-76
2022/09/26 09:37:36;;;;;;;2.92;1.25;;;17.40;96.50;;;;;;5073479;28;20047;-76
2022/09/26 09:40:41;;;;;;;1.58;0.98;;;17.40;95.70;;;;;;5053884;28;20033;-75
2022/09/26 09:43:25;;;;;;;2.40;1.35;;;17.50;95.80;;;;;;5055623;28;20040;-73
2022/09/26 09:45:56;;;;;;;2.33;1.27;;;17.40;95.90;;;;;;5055865;28;20032;-76
2022/09/26 09:48:26;;;;;;;3.55;1.08;;;17.40;95.80;;;;;;5074506;28;20445;-76
2022/09/26 09:51:47;;;;;;;6.00;1.23;;;17.50;95.90;;;;;;5055520;28;20033;-75
2022/09/26 09:54:50;;;;;;;3.13;2.08;;;17.60;94.50;;;;;;5031220;28;20047;-76
2022/09/26 09:57:53;;;;;;;2.33;1.10;;;17.10;95.60;;;;;;5074283;28;20028;-75
2022/09/26 10:00:21;;;;;;;1.90;1.20;;;16.90;96.50;;;;;;5061973;28;20353;-76
2022/09/26 10:03:13;;;;;;;4.47;1.40;;;16.30;98.00;;;;;;5091464;28;20051;-75
2022/09/26 10:05:44;;;;;;;6.33;1.43;;;16.30;98.50;;;;;;5093954;28;20035;-75
2022/09/26 10:08:35;;;;;;;3.58;1.30;;;16.60;97.10;;;;;;5104032;28;20294;-74
2022/09/26 10:11:40;;;;;;;2.40;0.90;;;16.60;97.10;;;;;;5093425;28;20039;-73
2022/09/26 10:14:54;;;;;;;6.10;1.25;;;16.60;96.70;;;;;;5097501;28;20031;-74
2022/09/26 10:18:04;;;;;;;2.78;1.17;;;16.70;96.50;;;;;;5075131;28;20032;-75
2022/09/26 10:20:41;;;;;;;2.28;1.23;;;16.90;94.20;;;;;;5079750;28;20440;-75
2022/09/26 10:23:12;;;;;;;;;;;16.30;96.40;;;;;;5091703;28;20039;-75
2022/09/26 10:25:45;;;;;;;3.00;1.03;;;16.10;97.20;;;;;;5092629;28;19911;-75
2022/09/26 10:28:45;;;;;;;3.55;1.17;;;15.90;97.70;;;;;;5092574;28;20039;-75
2022/09/26 10:31:22;;;;;;;2.45;1.00;;;15.80;98.00;;;;;;5063995;28;20035;-75
2022/09/26 10:34:23;;;;;;;3.10;1.10;;;15.70;99.20;;;;;;5090565;28;20052;-75
2022/09/26 10:36:50;;;;;;;1.52;0.98;;;15.60;99.70;;;;;;5091561;28;20043;-75
2022/09/26 10:42:34;;;;;;;2.22;1.25;;;15.50;99.90;;;;;;5091430;28;20046;-75
2022/09/26 10:45:14;;;;;;;3.25;1.17;;;15.30;99.90;;;;;;5089732;28;20480;-74
2022/09/26 10:48:00;;;;;;;2.00;0.82;;;15.30;99.40;;;;;;5093131;28;20039;-74
2022/09/26 10:50:50;;;;;;;2.28;0.80;;;15.50;99.70;;;;;;5090965;28;20511;-74
2022/09/26 10:53:40;;;;;;;2.45;1.05;;;15.70;99.60;;;;;;5089818;28;20043;-74
2022/09/26 10:56:12;;;;;;;3.67;0.60;;;15.70;98.60;;;;;;5091771;28;20085;-75
2022/09/26 10:58:44;;;;;;;1.35;0.80;;;15.60;97.70;;;;;;5086290;28;20040;-75
2022/09/26 11:01:25;;;;;;;3.03;0.80;;;15.70;97.10;;;;;;5091005;28;20051;-73
2022/09/26 11:03:58;;;;;;;2.60;1.08;;;15.90;97.90;;;;;;5090292;28;20040;-74
2022/09/26 11:06:24;;;;;;;5.38;0.98;;;16.10;97.80;;;;;;5093290;28;20047;-74
2022/09/26 11:08:57;;;;;;;1.95;0.75;;;16.30;96.50;;;;;;5090572;28;20067;-73
2022/09/26 11:11:46;;;;;;;2.53;0.77;;;16.30;95.80;;;;;;5091967;28;20036;-74
2022/09/26 11:14:25;;;;;;;2.77;0.90;;;16.70;96.20;;;;;;5089214;28;20397;-75
2022/09/26 11:16:58;;;;;;;1.33;0.80;;;17.00;96.20;;;;;;5081204;28;20279;-75
2022/09/26 11:19:27;;;;;;;1.27;0.50;;;17.30;91.50;;;;;;5081170;28;20044;-75
2022/09/26 11:22:14;;;;;;;0.80;0.52;;;17.70;91.30;;;;;;5079664;28;20062;-75
2022/09/26 11:25:06;;;;;;;2.92;0.57;;;17.30;91.00;;;;;;5091343;28;20040;-75
2022/09/26 11:27:51;;;;;;;2.35;0.68;;;17.60;91.80;;;;;;5088934;28;20059;-75
2022/09/26 11:30:27;;;;;;;1.85;0.70;;;17.80;88.30;;;;;;5090545;28;20047;-75
2022/09/26 11:32:59;;;;;;;1.83;0.60;;;17.60;90.30;;;;;;5082884;28;20048;-75
2022/09/26 11:36:16;;;;;;;3.20;0.50;;;17.60;90.20;;;;;;5098922;28;20043;-78
2022/09/26 11:38:49;;;;;;;1.23;0.40;;;17.20;88.40;;;;;;5090707;28;20040;-76
2022/09/26 11:41:36;;;;;;;1.80;0.50;;;16.70;87.30;;;;;;5073938;28;20473;-75
2022/09/26 11:44:25;;;;;;;2.10;0.60;;;16.70;86.50;;;;;;5088163;28;20039;-75
2022/09/26 11:48:05;;;;;;;4.10;0.60;;;16.50;88.10;;;;;;5062357;28;20052;-76
2022/09/26 11:50:48;;;;;;;3.03;0.50;;;16.90;87.90;;;;;;5089235;28;20052;-76
2022/09/26 11:53:53;;;;;;;1.13;0.40;;;16.90;86.00;;;;;;5088746;28;20044;-76
2022/09/26 11:56:47;;;;;;;2.65;0.68;;;16.90;83.70;;;;;;5082986;28;20059;-76
2022/09/26 11:59:47;;;;;;;4.70;0.73;;;17.10;83.60;;;;;;5092130;28;20040;-76
2022/09/26 12:02:35;;;;;;;3.53;0.70;;;17.30;80.00;;;;;;5091331;28;20055;-80
2022/09/26 12:05:12;;;;;;;1.67;0.50;;;17.00;76.20;;;;;;5089654;28;20039;-76
2022/09/26 12:07:48;;;;;;;4.22;0.68;;;17.10;75.30;;;;;;5091752;28;20396;-78
2022/09/26 12:10:30;;;;;;;2.45;0.60;;;16.90;74.70;;;;;;5090236;28;20056;-78
2022/09/26 12:13:14;;;;;;;2.38;0.73;;;16.80;77.20;;;;;;5089406;28;20036;-78
2022/09/26 12:15:43;;;;;;;2.47;0.60;;;16.90;78.40;;;;;;5091516;28;20473;-78
2022/09/26 12:18:31;;;;;;;1.20;0.60;;;17.20;78.50;;;;;;5090797;28;20040;-76
2022/09/26 12:21:22;;;;;;;3.38;0.73;;;17.20;75.60;;;;;;5090909;28;20040;-75
2022/09/26 12:24:05;;;;;;;2.53;1.05;;;17.30;78.20;;;;;;5086344;28;20031;-79
2022/09/26 12:27:05;;;;;;;1.58;0.50;;;17.20;77.40;;;;;;5091438;28;20055;-76
2022/09/26 12:30:02;;;;;;;1.00;0.40;;;17.40;74.00;;;;;;5090468;28;20392;-75
2022/09/26 12:32:41;;;;;;;1.00;0.40;;;17.50;74.30;;;;;;5088461;28;20047;-77
2022/09/26 12:35:33;;;;;;;0.98;0.50;;;17.50;74.40;;;;;;5088387;28;20032;-76
2022/09/26 12:39:02;;;;;;;2.83;0.55;;;17.50;75.10;;;;;;5095602;28;20032;-76
2022/09/26 12:41:50;;;;;;;3.53;0.50;;;17.40;72.30;;;;;;5032800;28;20037;-76
2022/09/26 12:44:43;;;;;;;1.35;0.40;;;17.10;72.70;;;;;;5086950;28;20051;-75
2022/09/26 12:47:20;;;;;;;4.07;0.52;;;16.90;72.70;;;;;;5071423;28;20385;-75
2022/09/26 12:50:04;;;;;;;1.25;0.40;;;16.70;74.70;;;;;;5094633;28;20040;-80
2022/09/26 12:52:36;;;;;;;2.45;0.90;;;16.30;76.80;;;;;;5094413;28;20047;-78
2022/09/26 12:55:29;;;;;;;2.30;0.68;;;16.00;81.50;;;;;;5095387;28;20032;-76
2022/09/26 12:58:21;;;;;;;2.95;0.73;;;15.50;96.00;;;;;;5095802;28;20024;-75
2022/09/26 13:01:02;;;;;;;3.22;0.80;;;15.20;98.80;;;;;;5088635;28;20040;-75
2022/09/26 13:04:00;;;;;;;1.38;1.00;;;14.70;99.90;;;;;;5058599;28;20055;-76
2022/09/26 13:06:57;;;;;;;1.67;0.95;;;14.50;99.90;;;;;;5083445;28;20352;-77
2022/09/26 13:09:29;;;;;;;1.77;0.55;;;14.30;99.90;;;;;;5060978;28;20047;-74
2022/09/26 13:12:04;;;;;;;2.65;0.50;;;14.30;99.90;;;;;;5076169;28;20024;-75
2022/09/26 13:14:55;;;;;;;1.33;0.57;;;14.40;99.90;;;;;;5040331;28;20461;-76
2022/09/26 13:17:35;;;;;;;2.95;1.10;;;14.60;99.90;;;;;;5054050;28;20033;-77
2022/09/26 13:20:30;;;;;;;2.75;0.70;;;14.50;99.90;;;;;;5074584;28;20032;-76
2022/09/26 13:23:06;;;;;;;1.73;0.57;;;14.70;99.90;;;;;;5073269;28;20032;-76
2022/09/26 13:25:44;;;;;;;2.42;0.75;;;14.70;99.90;;;;;;5074600;28;20032;-75
2022/09/26 13:28:15;;;;;;;1.45;0.63;;;14.80;99.90;;;;;;5074077;28;20029;-75
2022/09/26 13:30:48;;;;;;;1.58;0.50;;;14.90;99.90;;;;;;5075238;28;20476;-76
2022/09/26 13:33:19;;;;;;;1.17;0.40;;;14.80;99.90;;;;;;5073586;28;20507;-75
2022/09/26 13:35:49;;;;;;;1.10;0.55;;;14.80;99.90;;;;;;5074455;28;20461;-76
2022/09/26 13:38:27;;;;;;;2.45;0.45;;;14.70;99.90;;;;;;5074731;28;20032;-75
2022/09/26 13:41:05;;;;;;;1.10;0.38;;;14.60;99.90;;;;;;5074047;28;20032;-76
2022/09/26 13:43:53;;;;;;;1.48;0.38;;;14.60;99.90;;;;;;5068693;28;20021;-75
2022/09/26 13:46:58;;;;;;;1.70;0.50;;;14.70;99.90;;;;;;5070609;28;20039;-75
2022/09/26 13:49:58;;;;;;;1.27;0.50;;;14.90;99.90;;;;;;5056481;28;20473;-75
2022/09/26 13:52:45;;;;;;;1.42;0.40;;;14.80;99.90;;;;;;5073540;28;20377;-77
2022/09/26 13:55:18;;;;;;;2.05;0.70;;;14.70;99.90;;;;;;5073599;28;20061;-76
2022/09/26 13:57:58;;;;;;;2.00;0.30;;;14.50;99.90;;;;;;5074567;28;20028;-75
2022/09/26 14:00:31;;;;;;;1.70;0.50;;;14.50;99.90;;;;;;5073880;28;20071;-75
2022/09/26 14:03:21;;;;;;;3.33;0.45;;;14.40;99.90;;;;;;5072400;28;20304;-75